Time;durP1;ratioP1;P1;durP2;ratioP2;P2;SDS_P1;SDS_P2;PMS_P1;PMS_P2;Temp;Humidity;BMP_temperature;BMP_pressure;BME280_temperature;BME280_humidity;BME280_pressure;Samples;Min_cycle;Max_cycle;Signal;HPM_P1;HPM_P2
2020/12/07 00:01:30;;;;;;;51.08;17.15;;;4.60;99.90;;;;;;4995327;28;20038;-95
2020/12/07 00:03:59;;;;;;;57.60;21.45;;;4.60;99.90;;;;;;4988317;28;20054;-95
2020/12/07 00:06:24;;;;;;;51.53;17.55;;;4.60;99.90;;;;;;4998400;28;20123;-95
2020/12/07 00:09:16;;;;;;;52.72;17.92;;;4.60;99.90;;;;;;4985132;28;20436;-96
2020/12/07 00:12:10;;;;;;;57.25;20.20;;;4.60;99.90;;;;;;4980164;28;20035;-96
2020/12/07 00:15:31;;;;;;;51.50;17.48;;;4.60;99.90;;;;;;4982487;28;20018;-96
2020/12/07 00:18:13;;;;;;;51.80;17.63;;;4.60;99.90;;;;;;5138515;23;20097;-96
2020/12/07 00:20:40;;;;;;;44.30;16.83;;;4.60;99.90;;;;;;5022634;28;20050;-96
2020/12/07 00:23:11;;;;;;;39.67;14.93;;;4.70;99.90;;;;;;5040446;28;20025;-96
2020/12/07 00:25:38;;;;;;;;;;;4.60;99.90;;;;;;5008193;28;20085;-96
2020/12/07 00:28:09;;;;;;;48.05;17.52;;;4.60;99.90;;;;;;5023151;28;19909;-96
2020/12/07 00:30:40;;;;;;;49.00;17.13;;;4.70;99.90;;;;;;5033514;28;20034;-96
2020/12/07 00:33:12;;;;;;;53.25;19.65;;;4.70;99.90;;;;;;5018317;28;20037;-96
2020/12/07 00:35:38;;;;;;;51.55;17.80;;;4.70;99.90;;;;;;5017902;28;20010;-96
2020/12/07 00:38:07;;;;;;;46.17;18.00;;;4.70;99.90;;;;;;5015434;28;20038;-96
2020/12/07 00:40:38;;;;;;;53.15;18.48;;;4.70;99.90;;;;;;5001024;28;20057;-95
2020/12/07 00:43:07;;;;;;;49.25;17.35;;;4.60;99.90;;;;;;5017929;28;20038;-96
2020/12/07 00:45:34;;;;;;;47.80;17.27;;;4.60;99.90;;;;;;5017694;28;20093;-96
2020/12/07 00:48:01;;;;;;;44.63;15.88;;;4.60;99.90;;;;;;5017951;28;20026;-96
2020/12/07 00:50:53;;;;;;;51.72;19.33;;;4.60;99.90;;;;;;5000905;28;20128;-96
2020/12/07 00:53:19;;;;;;;49.88;17.20;;;4.60;99.90;;;;;;5013135;28;20120;-96
2020/12/07 00:55:46;;;;;;;45.58;17.85;;;4.60;99.90;;;;;;5028675;28;20037;-96
2020/12/07 00:58:16;;;;;;;47.03;16.73;;;4.50;99.90;;;;;;5015001;28;20093;-96
2020/12/07 01:00:43;;;;;;;40.58;15.07;;;4.50;99.90;;;;;;5013859;28;20018;-96
2020/12/07 01:03:10;;;;;;;39.58;15.23;;;4.50;99.90;;;;;;5015247;28;20137;-96
2020/12/07 01:05:38;;;;;;;31.83;13.27;;;4.40;99.90;;;;;;5017331;28;20021;-96
2020/12/07 01:08:06;;;;;;;32.58;13.50;;;4.40;99.90;;;;;;5016267;28;20038;-96
2020/12/07 01:10:36;;;;;;;30.63;12.50;;;4.40;99.90;;;;;;5015736;28;20030;-96
2020/12/07 01:13:08;;;;;;;28.30;11.50;;;4.40;99.90;;;;;;5016906;28;20037;-96
2020/12/07 01:15:35;;;;;;;24.83;11.88;;;4.40;99.90;;;;;;5020780;28;20033;-96
2020/12/07 01:18:06;;;;;;;26.48;11.48;;;4.50;99.90;;;;;;5016065;28;20042;-96
2020/12/07 01:20:41;;;;;;;24.30;10.55;;;4.50;99.90;;;;;;5002420;28;20117;-96
2020/12/07 01:23:31;;;;;;;22.65;9.93;;;4.50;99.90;;;;;;5019128;28;20038;-96
2020/12/07 01:26:05;;;;;;;22.55;10.43;;;4.40;99.90;;;;;;5037370;28;20026;-96
2020/12/07 01:28:38;;;;;;;27.88;10.82;;;4.40;99.90;;;;;;5014202;28;20090;-96
2020/12/07 01:31:15;;;;;;;20.05;10.07;;;4.40;99.90;;;;;;5034131;28;20022;-96
2020/12/07 01:37:08;;;;;;;21.48;10.10;;;4.30;99.90;;;;;;5039181;28;20041;-96
2020/12/07 01:39:42;;;;;;;;;;;4.30;99.90;;;;;;5034575;28;20046;-95
2020/12/07 01:42:33;;;;;;;36.38;12.90;;;4.20;99.90;;;;;;4999189;28;19925;-96
2020/12/07 01:45:20;;;;;;;40.25;17.30;;;4.20;99.90;;;;;;5019939;28;20037;-96
2020/12/07 01:47:56;;;;;;;41.83;15.70;;;4.20;99.90;;;;;;5037791;28;20048;-96
2020/12/07 01:50:33;;;;;;;33.90;13.30;;;4.10;99.90;;;;;;5003026;28;20101;-96
2020/12/07 01:53:29;;;;;;;43.15;16.58;;;4.10;99.90;;;;;;5003840;28;20060;-96
2020/12/07 01:57:10;;;;;;;44.97;16.90;;;4.00;99.90;;;;;;5022418;28;20030;-96
2020/12/07 01:59:39;;;;;;;51.25;18.25;;;4.00;99.90;;;;;;5032823;28;20022;-96
2020/12/07 02:02:35;;;;;;;48.55;19.67;;;3.90;99.90;;;;;;5004731;28;20037;-96
2020/12/07 02:05:32;;;;;;;44.80;17.98;;;3.90;99.90;;;;;;5020969;28;20064;-96
2020/12/07 02:08:51;;;;;;;47.53;17.42;;;3.80;99.90;;;;;;5016720;28;20041;-96
2020/12/07 02:11:39;;;;;;;50.38;18.33;;;3.80;99.90;;;;;;5018360;28;20036;-96
2020/12/07 02:25:43;;;;;;;53.00;18.48;;;3.70;99.90;;;;;;519734;26;20291;-92
2020/12/07 02:34:13;;;;;;;52.78;19.88;;;3.60;99.90;;;;;;5348757;23;20057;-96
2020/12/07 02:37:09;;;;;;;43.13;15.48;;;3.60;99.90;;;;;;5033057;28;20030;-95
2020/12/07 02:40:04;;;;;;;44.47;17.45;;;3.60;99.90;;;;;;5017842;28;20014;-96
2020/12/07 02:46:31;;;;;;;33.63;13.35;;;3.60;99.90;;;;;;5033287;28;20096;-96
2020/12/07 02:49:09;;;;;;;32.90;13.05;;;3.60;99.90;;;;;;5007390;28;20168;-95
2020/12/07 02:52:29;;;;;;;31.67;13.80;;;3.60;99.90;;;;;;5018404;28;20022;-96
2020/12/07 03:23:12;;;;;;;41.10;15.23;;;3.20;99.90;;;;;;4996650;28;20057;-95
2020/12/07 03:25:38;;;;;;;32.92;13.15;;;3.20;99.90;;;;;;4977907;28;20027;-96
2020/12/07 03:28:04;;;;;;;37.33;13.70;;;3.10;99.90;;;;;;4975010;28;20146;-96
2020/12/07 03:30:30;;;;;;;32.45;12.65;;;3.10;99.90;;;;;;4951134;28;20094;-96
2020/12/07 03:32:56;;;;;;;34.83;13.85;;;3.00;99.90;;;;;;4979039;28;20029;-96
2020/12/07 03:35:21;;;;;;;32.30;12.65;;;3.00;99.90;;;;;;4981949;28;20018;-96
2020/12/07 03:37:47;;;;;;;31.23;12.48;;;2.90;99.90;;;;;;4981971;28;20034;-96
2020/12/07 03:45:34;;;;;;;32.00;12.90;;;2.80;99.90;;;;;;4990927;28;20039;-96
2020/12/07 03:48:00;;;;;;;59.40;13.18;;;2.80;99.90;;;;;;4970292;28;20038;-95
2020/12/07 03:50:31;;;;;;;39.97;11.40;;;2.80;99.90;;;;;;4969588;28;20050;-96
2020/12/07 03:53:10;;;;;;;104.72;14.07;;;2.70;99.90;;;;;;4979407;28;20015;-96
2020/12/07 04:17:39;;;;;;;45.65;12.65;;;2.40;99.90;;;;;;5009474;28;20042;-96
2020/12/07 04:20:07;;;;;;;44.40;14.07;;;2.40;99.90;;;;;;5010348;28;20058;-96
2020/12/07 04:22:34;;;;;;;82.75;14.48;;;2.40;99.90;;;;;;4995032;28;20033;-96
2020/12/07 04:25:01;;;;;;;43.35;13.75;;;2.40;99.90;;;;;;4994948;28;20041;-96
2020/12/07 04:27:27;;;;;;;49.60;13.60;;;2.40;99.90;;;;;;4995744;28;20048;-96
2020/12/07 04:29:52;;;;;;;45.03;14.02;;;2.40;99.90;;;;;;4998542;28;20046;-96
2020/12/07 04:32:24;;;;;;;63.47;15.68;;;2.40;99.90;;;;;;5002959;28;20022;-94
2020/12/07 04:34:50;;;;;;;53.50;14.43;;;2.40;99.90;;;;;;5000338;28;20535;-96
2020/12/07 04:37:17;;;;;;;90.10;14.00;;;2.40;99.90;;;;;;4999114;28;20022;-96
2020/12/07 04:39:43;;;;;;;122.97;15.15;;;2.40;99.90;;;;;;4981563;28;20049;-96
2020/12/07 04:42:11;;;;;;;39.13;12.93;;;2.40;99.90;;;;;;5013491;28;20057;-96
2020/12/07 04:44:38;;;;;;;106.75;13.77;;;2.40;99.90;;;;;;5012646;28;20019;-96
2020/12/07 04:47:11;;;;;;;45.22;13.70;;;2.30;99.90;;;;;;4998004;28;20094;-96
2020/12/07 04:49:38;;;;;;;42.38;14.48;;;2.30;99.90;;;;;;4996936;28;20054;-96
2020/12/07 04:52:06;;;;;;;56.38;14.38;;;2.30;99.90;;;;;;4996048;28;20038;-96
2020/12/07 04:54:39;;;;;;;69.40;15.63;;;2.30;99.90;;;;;;4996202;28;20077;-96
2020/12/07 04:57:09;;;;;;;47.22;13.57;;;2.30;99.90;;;;;;4996354;28;20050;-96
2020/12/07 04:59:37;;;;;;;44.53;14.45;;;2.30;99.90;;;;;;4995502;28;20046;-96
2020/12/07 05:02:06;;;;;;;44.40;14.27;;;2.40;99.90;;;;;;4993875;28;20041;-96
2020/12/07 05:04:35;;;;;;;37.60;12.50;;;2.40;99.90;;;;;;4992760;28;20113;-96
2020/12/07 05:07:04;;;;;;;34.30;12.93;;;2.30;99.90;;;;;;4980632;28;20050;-96
2020/12/07 05:09:32;;;;;;;38.83;13.65;;;2.30;99.90;;;;;;4991012;28;20026;-96
2020/12/07 05:12:04;;;;;;;35.42;12.65;;;2.40;99.90;;;;;;4989701;28;20039;-96
2020/12/07 05:14:34;;;;;;;33.05;12.15;;;2.40;99.90;;;;;;4995354;28;20022;-96
2020/12/07 05:17:07;;;;;;;31.60;11.90;;;2.40;99.90;;;;;;4997932;28;20034;-96
2020/12/07 05:19:34;;;;;;;36.05;12.18;;;2.40;99.90;;;;;;4994774;28;20026;-96
2020/12/07 05:22:04;;;;;;;28.98;10.65;;;2.40;99.90;;;;;;4995002;28;20050;-96
2020/12/07 05:24:31;;;;;;;33.60;11.87;;;2.40;99.90;;;;;;4994519;28;20030;-96
2020/12/07 05:27:03;;;;;;;32.10;10.77;;;2.40;99.90;;;;;;4978520;28;20034;-96
2020/12/07 05:29:41;;;;;;;33.17;11.40;;;2.40;99.90;;;;;;4996886;28;20022;-96
2020/12/07 05:32:08;;;;;;;29.25;10.98;;;2.40;99.90;;;;;;4996338;28;20003;-96
2020/12/07 05:34:38;;;;;;;31.35;11.50;;;2.50;99.90;;;;;;4996180;28;20034;-96
2020/12/07 05:37:04;;;;;;;30.37;11.40;;;2.50;99.90;;;;;;4990216;28;20037;-96
2020/12/07 05:39:33;;;;;;;32.72;10.95;;;2.50;99.90;;;;;;4986530;28;20413;-96
2020/12/07 05:42:01;;;;;;;28.92;10.77;;;2.60;99.90;;;;;;4992447;28;20034;-96
2020/12/07 05:44:27;;;;;;;28.08;10.95;;;2.60;99.90;;;;;;4988969;28;20037;-96
2020/12/07 05:46:59;;;;;;;30.70;11.50;;;2.60;99.90;;;;;;4990481;28;20026;-96
2020/12/07 05:49:30;;;;;;;31.85;12.40;;;2.60;99.90;;;;;;4983575;28;20065;-96
2020/12/07 05:52:04;;;;;;;35.75;11.82;;;2.60;99.90;;;;;;4976579;28;20041;-96
2020/12/07 05:54:31;;;;;;;32.35;13.25;;;2.70;99.90;;;;;;4987593;28;20046;-96
2020/12/07 05:57:08;;;;;;;35.17;13.07;;;2.70;99.90;;;;;;4990873;28;20022;-95
2020/12/07 05:59:40;;;;;;;31.40;12.20;;;2.70;99.90;;;;;;4983839;28;20034;-96
2020/12/07 06:02:10;;;;;;;28.70;11.20;;;2.70;99.90;;;;;;4970896;28;20105;-96
2020/12/07 06:04:36;;;;;;;27.45;10.77;;;2.80;99.90;;;;;;4987423;28;20445;-95
2020/12/07 06:07:04;;;;;;;24.23;9.10;;;2.80;99.90;;;;;;4988651;28;20030;-95
2020/12/07 06:09:34;;;;;;;23.40;9.32;;;2.80;99.90;;;;;;4984910;28;20026;-95
2020/12/07 06:12:06;;;;;;;25.27;9.48;;;2.80;99.90;;;;;;4981978;28;20047;-95
2020/12/07 06:14:35;;;;;;;22.55;8.70;;;2.70;99.90;;;;;;4985032;28;20050;-96
2020/12/07 06:17:00;;;;;;;22.92;9.00;;;2.70;99.90;;;;;;4979751;28;20053;-95
2020/12/07 06:19:33;;;;;;;27.40;9.43;;;2.70;99.90;;;;;;4987213;28;20022;-96
2020/12/07 06:22:01;;;;;;;27.80;10.98;;;2.70;99.90;;;;;;4985386;28;20068;-96
2020/12/07 06:24:38;;;;;;;27.42;10.73;;;2.70;99.90;;;;;;4987417;28;20031;-96
2020/12/07 06:27:09;;;;;;;26.80;10.80;;;2.70;99.90;;;;;;4982209;28;20034;-96
2020/12/07 06:29:37;;;;;;;27.58;10.48;;;2.80;99.90;;;;;;4987680;28;20023;-96
2020/12/07 06:32:04;;;;;;;27.17;11.88;;;2.80;99.90;;;;;;4987406;28;20028;-95
2020/12/07 06:34:40;;;;;;;26.33;10.18;;;2.80;99.90;;;;;;4987282;28;20022;-96
2020/12/07 06:37:11;;;;;;;22.63;10.30;;;2.80;99.90;;;;;;4988777;28;20019;-95
2020/12/07 06:39:47;;;;;;;20.30;8.43;;;2.80;99.90;;;;;;4992991;28;20323;-95
2020/12/07 06:42:14;;;;;;;21.83;9.40;;;2.90;99.90;;;;;;4984509;28;20038;-96
2020/12/07 06:44:46;;;;;;;22.98;9.27;;;2.90;99.90;;;;;;4982639;28;20018;-96
2020/12/07 06:47:20;;;;;;;21.27;9.65;;;2.90;99.90;;;;;;4987912;28;20049;-96
2020/12/07 06:52:17;;;;;;;18.70;8.18;;;2.90;99.90;;;;;;5003799;28;20048;-95
2020/12/07 06:55:02;;;;;;;20.98;9.40;;;2.90;99.90;;;;;;4986438;28;20027;-96
2020/12/07 06:57:43;;;;;;;20.75;8.85;;;2.90;99.90;;;;;;4989207;28;20022;-96
2020/12/07 07:00:18;;;;;;;24.70;9.43;;;2.90;99.90;;;;;;4975455;28;20085;-96
2020/12/07 07:02:55;;;;;;;18.98;8.82;;;2.90;99.90;;;;;;4988253;28;20053;-95
2020/12/07 07:05:27;;;;;;;22.27;9.05;;;3.00;99.90;;;;;;4982950;28;20038;-96
2020/12/07 07:07:58;;;;;;;20.10;9.52;;;2.90;99.90;;;;;;4996796;28;20041;-96
2020/12/07 07:10:25;;;;;;;;;;;2.90;99.90;;;;;;5001049;28;20010;-96
2020/12/07 07:12:52;;;;;;;25.95;11.40;;;3.00;99.90;;;;;;5000535;28;19923;-96
2020/12/07 07:15:21;;;;;;;26.63;11.88;;;3.00;99.90;;;;;;5017556;28;20120;-95
2020/12/07 07:17:53;;;;;;;22.00;10.18;;;3.00;99.90;;;;;;4995806;28;20027;-96
2020/12/07 07:20:24;;;;;;;26.73;11.30;;;3.00;99.90;;;;;;5010226;28;20026;-96
2020/12/07 07:22:57;;;;;;;24.80;11.55;;;3.00;99.90;;;;;;4993125;28;20054;-95
2020/12/07 07:25:39;;;;;;;29.45;13.63;;;3.00;99.90;;;;;;4978156;28;20043;-96
2020/12/07 07:28:10;;;;;;;32.00;14.63;;;3.00;99.90;;;;;;4992184;28;20030;-96
2020/12/07 07:30:42;;;;;;;29.45;13.70;;;3.00;99.90;;;;;;4974295;28;20096;-95
2020/12/07 07:33:10;;;;;;;29.00;12.40;;;3.00;99.90;;;;;;4989904;28;20035;-96
2020/12/07 07:35:42;;;;;;;37.70;15.13;;;3.00;99.90;;;;;;4993971;28;20114;-96
2020/12/07 07:38:17;;;;;;;32.83;15.15;;;3.00;99.90;;;;;;4988406;28;20022;-96
2020/12/07 07:40:53;;;;;;;36.92;15.07;;;2.90;99.90;;;;;;4994396;28;20031;-96
2020/12/07 07:43:26;;;;;;;34.50;15.23;;;2.90;99.90;;;;;;4978442;28;20065;-96
2020/12/07 07:46:00;;;;;;;32.85;14.93;;;3.00;99.90;;;;;;4980637;28;20022;-96
2020/12/07 07:48:45;;;;;;;32.83;15.00;;;2.90;99.90;;;;;;4989597;28;20031;-96
2020/12/07 07:59:53;;;;;;;23.13;10.82;;;3.00;99.90;;;;;;5000554;28;20037;-95
2020/12/07 08:15:54;;;;;;;25.90;12.00;;;2.90;99.90;;;;;;5007699;28;20046;-96
2020/12/07 08:18:30;;;;;;;24.88;11.77;;;2.90;99.90;;;;;;4986727;28;20034;-95
2020/12/07 08:21:00;;;;;;;23.45;11.13;;;2.90;99.90;;;;;;4984678;28;20037;-95
2020/12/07 08:23:28;;;;;;;23.77;11.70;;;2.90;99.90;;;;;;4982948;28;20039;-96
2020/12/07 08:25:55;;;;;;;24.73;11.88;;;3.00;99.90;;;;;;4976896;28;20416;-95
2020/12/07 08:28:31;;;;;;;21.52;10.95;;;3.00;99.90;;;;;;4969147;28;20042;-96
2020/12/07 08:31:10;;;;;;;27.00;13.57;;;3.10;99.90;;;;;;4972997;28;20026;-95
2020/12/07 08:34:02;;;;;;;28.58;12.48;;;3.20;99.90;;;;;;4982429;28;20033;-96
2020/12/07 08:36:30;;;;;;;25.92;11.65;;;3.20;99.90;;;;;;4981252;28;20039;-95
2020/12/07 08:38:58;;;;;;;23.52;10.95;;;3.30;99.90;;;;;;4988623;28;20041;-95
2020/12/07 08:41:26;;;;;;;22.63;11.40;;;3.40;99.90;;;;;;4991838;28;20046;-96
2020/12/07 08:44:03;;;;;;;25.75;10.93;;;3.40;99.90;;;;;;5002804;28;20014;-95
2020/12/07 08:46:35;;;;;;;24.20;10.73;;;3.40;99.90;;;;;;4995331;28;20045;-95
2020/12/07 08:49:02;;;;;;;20.90;10.45;;;3.50;99.90;;;;;;4940903;28;20046;-96
2020/12/07 08:51:34;;;;;;;25.45;11.73;;;3.50;99.90;;;;;;4983415;28;20122;-96
2020/12/07 08:54:00;;;;;;;25.25;11.68;;;3.50;99.90;;;;;;4981229;28;20027;-96
2020/12/07 08:56:28;;;;;;;24.08;11.55;;;3.50;99.90;;;;;;4985749;28;20026;-96
2020/12/07 08:58:54;;;;;;;24.52;11.20;;;3.60;99.90;;;;;;4984828;28;20027;-95
2020/12/07 09:01:20;;;;;;;25.60;11.98;;;3.60;99.90;;;;;;4981224;28;20083;-96
2020/12/07 09:03:47;;;;;;;27.75;12.73;;;3.60;99.90;;;;;;4974782;28;20027;-95
2020/12/07 09:06:14;;;;;;;22.58;11.65;;;3.60;99.90;;;;;;4975054;28;20026;-95
2020/12/07 09:08:44;;;;;;;24.75;12.60;;;3.70;99.90;;;;;;4991051;28;20022;-96
2020/12/07 09:11:14;;;;;;;28.65;13.45;;;3.70;99.90;;;;;;4991397;28;20035;-96
2020/12/07 09:13:42;;;;;;;28.63;13.50;;;3.70;99.90;;;;;;4990825;28;20106;-96
2020/12/07 09:16:08;;;;;;;29.95;13.20;;;3.70;99.90;;;;;;4989667;28;20047;-96
2020/12/07 09:18:36;;;;;;;26.17;12.20;;;3.70;99.90;;;;;;4989858;28;20054;-96
2020/12/07 09:21:08;;;;;;;27.58;11.68;;;3.70;99.90;;;;;;4979312;28;20049;-96
2020/12/07 09:23:38;;;;;;;21.73;10.88;;;3.70;99.90;;;;;;4988638;28;20046;-96
2020/12/07 09:26:05;;;;;;;23.95;10.60;;;3.70;99.90;;;;;;4994591;28;20030;-96
2020/12/07 09:28:32;;;;;;;24.15;11.30;;;3.70;99.90;;;;;;4979284;28;20030;-96
2020/12/07 09:31:01;;;;;;;19.92;10.02;;;3.70;99.90;;;;;;4979596;28;20033;-95
2020/12/07 09:33:27;;;;;;;23.58;11.10;;;3.70;99.90;;;;;;4979133;28;20027;-95
2020/12/07 09:36:02;;;;;;;23.02;10.30;;;3.70;99.90;;;;;;4970169;28;20027;-95
2020/12/07 09:38:35;;;;;;;22.58;10.20;;;3.70;99.90;;;;;;4960115;28;20031;-93
2020/12/07 09:41:01;;;;;;;22.20;10.38;;;3.70;99.90;;;;;;4969296;28;20030;-96
2020/12/07 09:43:27;;;;;;;22.58;10.10;;;3.70;99.90;;;;;;4983366;28;20041;-95
2020/12/07 09:45:53;;;;;;;22.17;10.32;;;3.70;99.90;;;;;;4978287;28;20147;-95
2020/12/07 09:48:19;;;;;;;23.67;10.77;;;3.70;99.90;;;;;;4984176;28;20444;-95
2020/12/07 09:50:45;;;;;;;27.90;12.57;;;3.60;99.90;;;;;;4966685;28;20101;-95
2020/12/07 09:53:16;;;;;;;22.52;10.40;;;3.60;99.90;;;;;;4982518;28;20026;-95
2020/12/07 09:55:45;;;;;;;23.15;10.82;;;3.60;99.90;;;;;;4981546;28;20081;-95
2020/12/07 09:58:11;;;;;;;26.87;12.07;;;3.60;99.90;;;;;;4983878;28;20030;-95
2020/12/07 10:00:37;;;;;;;26.92;11.98;;;3.60;99.90;;;;;;4983651;28;20031;-95
2020/12/07 10:03:03;;;;;;;24.38;11.88;;;3.50;99.90;;;;;;4982803;28;20065;-96
2020/12/07 10:05:32;;;;;;;22.13;10.90;;;3.50;99.90;;;;;;4984704;28;20037;-96
2020/12/07 10:08:09;;;;;;;29.02;11.32;;;3.60;99.90;;;;;;4976609;28;20505;-94
2020/12/07 10:10:35;;;;;;;24.58;11.00;;;3.60;99.90;;;;;;4971573;28;20026;-96
2020/12/07 10:13:08;;;;;;;26.20;12.27;;;3.60;99.90;;;;;;4987624;28;20396;-96
2020/12/07 10:15:42;;;;;;;26.73;12.68;;;3.60;99.90;;;;;;5007377;28;20043;-95
2020/12/07 10:18:11;;;;;;;27.92;12.60;;;3.60;99.90;;;;;;4989692;28;20042;-95
2020/12/07 10:20:45;;;;;;;30.00;13.48;;;3.60;99.90;;;;;;4971211;28;20035;-96
2020/12/07 10:23:13;;;;;;;27.00;12.40;;;3.70;99.90;;;;;;4986510;28;20038;-96
2020/12/07 10:25:39;;;;;;;29.40;13.27;;;3.60;99.90;;;;;;4988464;28;20025;-96
2020/12/07 10:28:16;;;;;;;32.30;15.18;;;3.60;99.90;;;;;;4996440;28;20030;-96
2020/12/07 10:30:46;;;;;;;32.92;15.20;;;3.60;99.90;;;;;;4998406;28;20015;-96
2020/12/07 10:33:38;;;;;;;35.70;15.53;;;3.60;99.90;;;;;;4996167;28;20022;-95
2020/12/07 10:36:17;;;;;;;32.53;14.60;;;3.60;99.90;;;;;;4968706;28;20093;-96
2020/12/07 10:38:52;;;;;;;31.25;15.48;;;3.60;99.90;;;;;;4980612;28;20042;-96
2020/12/07 10:41:31;;;;;;;30.27;14.07;;;3.70;99.90;;;;;;4968957;28;20106;-96
2020/12/07 12:13:48;;;;;;;19.85;9.68;;;4.10;99.90;;;;;;718414;23;20318;-95
2020/12/07 12:16:32;;;;;;;22.02;10.02;;;4.10;99.90;;;;;;4947174;28;20056;-95
2020/12/07 12:19:01;;;;;;;18.80;9.05;;;4.20;99.90;;;;;;4950109;29;20028;-95
2020/12/07 12:21:31;;;;;;;21.33;10.60;;;4.30;99.90;;;;;;4946410;28;20056;-96
2020/12/07 12:24:04;;;;;;;19.17;10.27;;;4.40;99.90;;;;;;4946031;29;20033;-96
2020/12/07 12:26:41;;;;;;;21.58;11.15;;;4.50;99.90;;;;;;4942347;29;20043;-95
2020/12/07 12:29:34;;;;;;;21.10;9.90;;;4.60;99.90;;;;;;4937112;29;20111;-96
2020/12/07 12:32:31;;;;;;;16.73;9.35;;;4.70;99.90;;;;;;4950955;28;20014;-95
2020/12/07 12:58:47;;;;;;;13.30;7.30;;;6.40;99.90;;;;;;5197106;23;20066;-93
2020/12/07 13:01:16;;;;;;;14.50;6.90;;;7.00;99.90;;;;;;5005802;28;20081;-95
2020/12/07 13:06:45;;;;;;;12.65;7.60;;;7.70;99.90;;;;;;5130495;23;20058;-94
2020/12/07 13:09:18;;;;;;;13.38;7.22;;;8.10;99.90;;;;;;5012743;28;20038;-95
2020/12/07 13:11:48;;;;;;;12.95;7.28;;;8.40;99.90;;;;;;5032826;28;20102;-96
2020/12/07 16:42:06;;;;;;;27.13;13.88;;;3.50;99.90;;;;;;4919499;29;20064;-96
2020/12/07 16:55:29;;;;;;;23.25;11.32;;;3.70;99.90;;;;;;5520049;23;20063;-96
2020/12/07 16:57:54;;;;;;;;;;;3.80;99.90;;;;;;4925123;29;20146;-94
2020/12/07 17:00:20;;;;;;;24.63;11.77;;;3.80;99.90;;;;;;4926994;29;19953;-95
2020/12/07 17:03:00;;;;;;;22.98;11.57;;;3.80;99.90;;;;;;4911926;29;20043;-96
2020/12/07 17:05:30;;;;;;;24.42;10.65;;;3.80;99.90;;;;;;4945523;29;20027;-96
2020/12/07 17:08:05;;;;;;;22.42;10.80;;;3.70;99.90;;;;;;4937794;29;20110;-96
2020/12/07 17:10:32;;;;;;;22.35;11.48;;;3.70;99.90;;;;;;4953276;29;20060;-96
2020/12/07 17:12:58;;;;;;;24.05;10.20;;;3.70;99.90;;;;;;4941789;29;20012;-96
2020/12/07 17:15:32;;;;;;;33.00;14.23;;;3.70;99.90;;;;;;4943248;29;20091;-96
2020/12/07 17:18:05;;;;;;;25.02;11.20;;;3.70;99.90;;;;;;4941908;29;20016;-96
2020/12/07 17:20:36;;;;;;;25.92;11.95;;;3.60;99.90;;;;;;4935452;29;20036;-96
2020/12/07 17:23:02;;;;;;;27.25;12.45;;;3.50;99.90;;;;;;4942202;29;20032;-94
2020/12/07 17:25:34;;;;;;;23.40;11.93;;;3.50;99.90;;;;;;4931930;29;20030;-96
2020/12/07 17:28:07;;;;;;;32.00;13.05;;;3.50;99.90;;;;;;4939871;29;20028;-96
2020/12/07 17:30:38;;;;;;;30.10;13.43;;;3.40;99.90;;;;;;4939811;29;20027;-96
2020/12/07 17:33:04;;;;;;;40.95;16.95;;;3.40;99.90;;;;;;4935200;29;20030;-95
2020/12/07 17:35:30;;;;;;;42.00;19.90;;;3.40;99.90;;;;;;4931467;29;20035;-94
2020/12/07 17:37:56;;;;;;;45.97;20.45;;;3.30;99.90;;;;;;4920941;29;20028;-94
2020/12/07 17:40:23;;;;;;;47.85;20.75;;;3.30;99.90;;;;;;4944767;29;20027;-93
2020/12/07 17:42:50;;;;;;;39.58;18.90;;;3.20;99.90;;;;;;4929785;29;20099;-93
2020/12/07 17:45:22;;;;;;;41.45;18.05;;;3.20;99.90;;;;;;4925504;29;20016;-94
2020/12/07 17:47:50;;;;;;;30.60;14.82;;;3.20;99.90;;;;;;4920094;29;20402;-94
2020/12/07 17:50:20;;;;;;;30.15;15.43;;;3.20;99.90;;;;;;4946748;29;20027;-92
2020/12/07 17:52:53;;;;;;;27.13;13.25;;;3.20;99.90;;;;;;4954760;29;20087;-95
2020/12/07 17:55:25;;;;;;;28.85;13.10;;;3.10;99.90;;;;;;4950207;29;20028;-94
2020/12/07 17:58:23;;;;;;;26.75;12.35;;;3.20;99.90;;;;;;4958183;28;20031;-95
2020/12/07 18:12:08;;;;;;;27.27;12.98;;;3.10;99.90;;;;;;5314830;23;20055;-93
2020/12/07 18:14:34;;;;;;;32.47;14.13;;;3.10;99.90;;;;;;4930724;29;20040;-95
2020/12/07 18:17:00;;;;;;;30.88;13.95;;;3.10;99.90;;;;;;4924305;29;20031;-95
2020/12/07 18:19:29;;;;;;;24.45;12.65;;;3.00;99.90;;;;;;4932772;29;20024;-96
2020/12/07 18:21:57;;;;;;;28.65;14.70;;;3.00;99.90;;;;;;4927796;29;20046;-95
2020/12/07 18:24:25;;;;;;;26.60;13.23;;;3.00;99.90;;;;;;4929976;29;20008;-96
2020/12/07 18:26:52;;;;;;;31.88;15.35;;;3.00;99.90;;;;;;4932691;29;20035;-93
2020/12/07 18:29:21;;;;;;;33.42;15.73;;;3.00;99.90;;;;;;4925481;29;20031;-96
2020/12/07 18:31:47;;;;;;;48.95;21.83;;;2.90;99.90;;;;;;4930465;29;20478;-96
2020/12/07 18:34:15;;;;;;;53.53;22.30;;;2.90;99.90;;;;;;4922673;29;20040;-95
2020/12/07 18:36:44;;;;;;;42.08;18.15;;;2.80;99.90;;;;;;4928286;29;20031;-95
2020/12/07 18:39:21;;;;;;;45.47;19.97;;;2.80;99.90;;;;;;4921171;29;20063;-96
2020/12/07 18:42:00;;;;;;;37.22;16.77;;;2.70;99.90;;;;;;4951253;29;20032;-94
2020/12/07 18:44:33;;;;;;;31.30;15.32;;;2.70;99.90;;;;;;4923660;29;20019;-95
2020/12/07 18:50:08;;;;;;;31.30;14.30;;;2.70;99.90;;;;;;4944096;29;20043;-95
2020/12/07 18:52:36;;;;;;;31.73;14.45;;;2.80;99.90;;;;;;4932509;29;20446;-94
2020/12/07 18:55:02;;;;;;;34.72;14.68;;;2.80;99.90;;;;;;4914002;29;20123;-94
2020/12/07 18:57:33;;;;;;;33.58;15.35;;;2.70;99.90;;;;;;4925636;29;20051;-94
2020/12/07 19:00:01;;;;;;;;;;;2.70;99.90;;;;;;4934424;29;20016;-96
2020/12/07 19:02:45;;;;;;;36.45;15.35;;;2.70;99.90;;;;;;4939931;29;19919;-96
2020/12/07 19:05:23;;;;;;;43.78;18.08;;;2.60;99.90;;;;;;4946655;29;20028;-96
2020/12/07 19:07:51;;;;;;;38.03;17.55;;;2.50;99.90;;;;;;4921917;29;20028;-95
2020/12/07 19:10:20;;;;;;;42.95;17.33;;;2.40;99.90;;;;;;4941679;29;20059;-95
2020/12/07 19:12:52;;;;;;;43.25;17.60;;;2.40;99.90;;;;;;4930351;29;20051;-95
2020/12/07 19:15:55;;;;;;;40.25;17.67;;;2.40;99.90;;;;;;4928951;29;20031;-96
2020/12/07 19:19:01;;;;;;;44.08;17.88;;;2.40;99.90;;;;;;4918722;29;20125;-95
2020/12/07 19:25:08;;;;;;;38.58;16.10;;;2.50;99.90;;;;;;4937451;28;20043;-96
2020/12/07 19:27:37;;;;;;;36.53;16.92;;;2.50;99.90;;;;;;4929833;29;20044;-95
2020/12/07 19:30:10;;;;;;;39.28;16.83;;;2.50;99.90;;;;;;4897113;29;20040;-96
2020/12/07 19:32:46;;;;;;;37.25;16.98;;;2.50;99.90;;;;;;4921717;29;20044;-96
2020/12/07 19:35:13;;;;;;;38.95;17.90;;;2.40;99.90;;;;;;4910566;29;20052;-94
2020/12/07 19:37:40;;;;;;;38.78;17.05;;;2.40;99.90;;;;;;4906591;29;20020;-96
2020/12/07 19:40:07;;;;;;;38.13;17.30;;;2.40;99.90;;;;;;4906337;29;20040;-94
2020/12/07 19:42:38;;;;;;;38.70;18.38;;;2.40;99.90;;;;;;4925346;29;20035;-96
2020/12/07 19:45:06;;;;;;;42.58;19.33;;;2.40;99.90;;;;;;4912882;29;20028;-96
2020/12/07 19:47:34;;;;;;;41.10;18.95;;;2.40;99.90;;;;;;4913663;29;20032;-96
2020/12/07 19:50:00;;;;;;;40.85;19.15;;;2.40;99.90;;;;;;4916537;29;20028;-96
2020/12/07 19:52:25;;;;;;;42.03;19.33;;;2.40;99.90;;;;;;4909849;29;20050;-95
2020/12/07 19:54:51;;;;;;;48.53;22.38;;;2.40;99.90;;;;;;4903225;29;20024;-96
2020/12/07 19:57:19;;;;;;;55.50;23.33;;;2.40;99.90;;;;;;4906304;29;20039;-96
2020/12/07 19:59:46;;;;;;;62.03;25.13;;;2.40;99.90;;;;;;4917847;29;20036;-96
2020/12/07 20:02:13;;;;;;;62.33;22.67;;;2.30;99.90;;;;;;4928197;29;20138;-96
2020/12/07 20:04:39;;;;;;;44.00;19.90;;;2.30;99.90;;;;;;4917231;29;20056;-96
2020/12/07 20:07:05;;;;;;;45.03;19.17;;;2.20;99.90;;;;;;4923263;29;20035;-96
2020/12/07 20:09:34;;;;;;;41.58;18.38;;;2.20;99.90;;;;;;4921455;29;20078;-95
2020/12/07 20:11:59;;;;;;;41.22;19.02;;;2.20;99.90;;;;;;4914286;29;20032;-96
2020/12/07 20:14:28;;;;;;;43.20;19.48;;;2.20;99.90;;;;;;4919539;29;20023;-96
2020/12/07 20:16:56;;;;;;;52.15;20.73;;;2.10;99.90;;;;;;4916688;29;20048;-96
2020/12/07 20:19:21;;;;;;;53.30;23.15;;;2.10;99.90;;;;;;4923952;29;21027;-96
2020/12/07 20:21:47;;;;;;;52.50;23.60;;;2.00;99.90;;;;;;4922739;29;20059;-95
2020/12/07 20:24:16;;;;;;;51.17;19.88;;;1.90;99.90;;;;;;4923608;29;20119;-95
2020/12/07 20:26:42;;;;;;;49.35;21.08;;;1.80;99.90;;;;;;4923821;29;20023;-96
2020/12/07 20:29:08;;;;;;;48.63;21.27;;;1.70;99.90;;;;;;4921799;29;20024;-96
2020/12/07 20:31:34;;;;;;;41.22;19.92;;;1.60;99.90;;;;;;4922366;29;20028;-95
2020/12/07 20:34:00;;;;;;;38.70;18.90;;;1.60;99.90;;;;;;4921699;29;20038;-96
2020/12/07 20:36:30;;;;;;;46.10;21.23;;;1.50;99.90;;;;;;4923063;29;20031;-96
2020/12/07 20:38:56;;;;;;;48.85;20.20;;;1.50;99.90;;;;;;4928613;29;20113;-95
2020/12/07 20:41:22;;;;;;;48.58;20.52;;;1.50;99.90;;;;;;4927192;29;20122;-95